METAR Data
IDs: Format: Raw Decoded Include TAF

Data at: 1418 UTC 20 Oct 2021

METAR for:KCRP (Corpus Christi Intl, TX, US)
Text:KCRP 201351Z 04004KT 10SM FEW027 FEW038 FEW100 SCT160 BKN250 23/22 A3006 RMK AO2 SLP179 T02280217
Temperature: 22.8°C ( 73°F)
Dewpoint: 21.7°C ( 71°F) [RH = 94%]
Pressure (altimeter):30.06 inches Hg (1018.0 mb) [Sea level pressure: 1017.9 mb]
Winds:from the NE (40 degrees) at 5 MPH (4 knots; 2.1 m/s)
Visibility:10 or more sm (16+ km)
Ceiling:at least 12,000 feet AGL
Clouds: few clouds at 2700 feet AGL, few clouds at 3800 feet AGL, few clouds at 10000 feet AGL, scattered clouds at 16000 feet AGL